Aydin, Turkey
Current Conditions -  °F | °C
As of 11:50 PM on Friday 24 Oct 2014 (Local Time) from LTFE Reporting Station
Broken Clouds Broken Clouds  
Wind Chill: 23°   Ceiling: 9000
Heat Index: 23°   Visibility: 6mi
Dew Point: 16°   Wind: 18mph
Humidity: 65%   Direction: 180°S
Pressure: 29.77"   Gusts: NA
Location:  37.86°N, 27.84°E
Report Text: LTFE 242050Z 18016KT 9999 SCT030 BKN090 23/16 Q1008 BECMG TL2120 -TSRA TEMPO FM2130 2000 +TSRA
Loading
Personal Weather Stations






























Interactive Weather Map
Tropical Storm Tracking
New forecast layout! Learn more

10-Day Weather Forecast

Advertisements
Track Severe Weather on mobile